Lewis Run, PA

9:53 AM EDT on August 22, 2014 (GMT -0400)
Bradford Regional | Change Station
CLOSE
Current Station
Airport
Location: Bradford,
Elevation: 2142 ft
Nearby Weather Stations

Elev 2142 ft 41.80 °N, 78.64 °W | Updated 16 minutes ago

Scattered Clouds
Scattered Clouds
68 °F
Feels Like 68 °F
N
4
Wind Variable Wind from WSW

Today
High -- | Low -- °F
--% Chance of Precip.
Yesterday
High -- | Low -- °F
Precip. -- in
6:30 AM 8:04 PM
Waning Crescent, 8% visible
Pressure 30.06 in
Visibility 7.0 miles
Clouds Scattered Clouds 800 ft
Scattered Clouds 1200 ft
Dew Point 65 °F
Humidity 90%
Rainfall 0.27 in
Snow Depth Not available.
UV 3 out of 12
Pollen 8.60 out of 12
Air Quality Not available.
Flu Activity Not available.
SPECI KBFD 221337Z AUTO 24003KT 7SM SCT008 SCT012 20/18 A3006 RMK AO2 T02000183

More Conditions Fewer Conditions

Pressure 30.06 in
Visibility 7.0 miles
Clouds Scattered Clouds 800 ft
Scattered Clouds 1200 ft
Dew Point 65 °F
Humidity 90%
Rainfall 0.27 in
Snow Depth Not available.
UV 3 out of 12
Pollen 8.60 out of 12
Air Quality Not available.
Flu Activity Not available.
SPECI KBFD 221337Z AUTO 24003KT 7SM SCT008 SCT012 20/18 A3006 RMK AO2 T02000183

More Conditions Fewer Conditions

Nowcast | as of 9:48 am EDT on August 22, 2014

A few mainly light showers will drift across the region through mid day. A rumble of thunder cannot be ruled out as well.

×

10-Day Weather Forecast

Almanac

Astronomy

Aug. 22, 2014 Rise Set
Actual Time 6:30 AM EDT 8:04 PM EDT
Civil Twilight 6:00 AM EDT 8:33 PM EDT
Nautical Twilight 5:25 AM EDT 9:08 PM EDT
Astronomical Twilight 4:47 AM EDT 9:46 PM EDT
Moon 3:49 AM EDT 6:12 PM EDT
Length of Visible Light 14h 32m
Length of Day
13h 34m
Tomorrow will be 2m 36s shorter.
Waning Crescent, 8% of the Moon is Illuminated
Today
Waning Crescent
Aug 25
New
Sep 2
First Quarter
Sep 8
Full
Sep 15
Last Quarter

Today's Extremes

State Highs State Lows

Community

WunderPhotos

Upload Photos

1,746,168 photos uploaded!

Nearby

Snow Depth

Station Depth Elevation
No new snow has been reported.

Earthquake Activity

City Distance Mag. Time & Date
No recent earthquake activity has been reported nearby.
Minimum magnitude displayed is 2.5.

Coastal Water Temperatures

Place Temperature
No Stations Reporting

Nearby Weather Stations